Last 24 Hours

Thomas Mountain

10 Minute Data | America/Los_Angeles
as of 9/2/26 1:42 PM PDT
Date & Time Temp (°F) Dew Pt (°F) RH (%) Wind Spd (mph) Wind Dir (°) Wind Gust (mph) Wind Gst Dir (°) Daily Max Temp (°F) Daily Min Temp (°F)
9/2/26 - 1340 74.9 20.3 13 13.7 WSW | 244 22.4 WSW | 237 76.8 59.5
9/2/26 - 1330 73.8 20.4 13 14.9 WSW | 245 27.0 WSW | 240 74.8 59.5
9/2/26 - 1320 73.8 20.6 13 14.2 WSW | 240 21.8 WSW | 245 74.8 59.5
9/2/26 - 1310 73.8 21.4 14 15.5 SW | 228 25.6 WSW | 242 74.8 59.5
9/2/26 - 1300 73.0 21.4 14 15.8 WSW | 244 24.1 WSW | 252 74.5 59.5
9/2/26 - 1250 72.9 22.1 15 14.9 WSW | 239 23.6 SW | 233 74.5 59.5
9/2/26 - 1240 72.6 22.2 15 14.9 WSW | 237 22.1 SW | 225 74.5 59.5
9/2/26 - 1230 72.7 21.7 15 16.7 WSW | 237 26.2 SW | 226 74.5 59.5
9/2/26 - 1220 73.1 21.4 14 16.3 SW | 235 24.0 WSW | 238 74.5 59.5
9/2/26 - 1210 73.6 21.4 14 13.0 SW | 234 20.1 WSW | 243 74.5 59.5
9/2/26 - 1200 72.1 20.4 14 15.1 WSW | 242 24.1 SW | 224 73.2 59.5
9/2/26 - 1150 72.2 20.0 14 15.2 WSW | 240 24.4 WSW | 237 73.2 59.5
9/2/26 - 1140 70.9 20.1 14 14.0 WSW | 239 22.5 WSW | 238 71.8 59.5
9/2/26 - 1130 70.9 20.4 15 14.6 WSW | 249 22.4 WSW | 248 71.8 59.5
9/2/26 - 1120 70.4 19.9 15 15.1 WSW | 247 25.6 W | 260 71.8 59.5
9/2/26 - 1110 71.1 20.1 14 14.4 WSW | 246 23.8 WSW | 245 71.8 59.5
9/2/26 - 1100 70.8 19.7 14 13.7 WSW | 246 25.5 WSW | 250 71.7 59.5
9/2/26 - 1050 70.3 19.6 14 13.1 WSW | 246 21.5 SW | 236 70.9 59.5
9/2/26 - 1040 70.0 19.6 15 11.6 WSW | 248 19.6 WSW | 247 70.9 59.5
9/2/26 - 1030 69.3 19.4 15 11.0 WSW | 251 18.1 WSW | 249 70.3 59.5
9/2/26 - 1020 69.5 19.4 15 11.6 WSW | 245 20.0 WSW | 258 70.0 59.5
9/2/26 - 1010 68.7 19.0 15 11.5 WSW | 245 20.0 W | 259 69.1 59.5
9/2/26 - 1000 68.6 18.8 15 11.3 WSW | 250 19.2 WSW | 246 68.9 59.5
9/2/26 - 0950 68.4 18.7 15 10.9 WSW | 253 17.8 WSW | 253 68.8 59.5
9/2/26 - 0940 68.5 19.2 15 6.6 W | 266 14.7 WSW | 244 68.8 59.5
9/2/26 - 0930 67.8 19.5 16 6.0 W | 280 13.2 W | 268 68.6 59.5
9/2/26 - 0920 67.1 19.5 16 8.1 W | 261 14.4 WSW | 246 67.6 59.5
9/2/26 - 0910 66.7 19.8 17 8.7 WSW | 254 15.9 WSW | 243 67.1 59.5
9/2/26 - 0900 66.2 20.3 17 7.7 WSW | 241 15.0 WSW | 248 66.6 59.5
9/2/26 - 0850 65.6 20.3 18 7.0 WSW | 243 12.4 WSW | 238 66.0 59.5
9/2/26 - 0840 65.2 20.4 18 7.0 WSW | 253 13.7 W | 269 65.4 59.5
9/2/26 - 0830 65.1 20.3 18 8.2 W | 266 13.9 WNW | 282 65.4 59.5
9/2/26 - 0820 65.3 20.1 18 6.2 W | 262 12.5 WSW | 257 65.4 59.5
9/2/26 - 0810 65.3 19.4 17 5.6 W | 269 11.6 WNW | 297 65.4 59.5
9/2/26 - 0800 65.3 18.5 16 6.3 W | 278 12.2 W | 266 65.4 59.5
9/2/26 - 0750 65.4 17.6 16 5.4 W | 276 11.2 WSW | 250 65.4 59.5
9/2/26 - 0740 64.2 19.2 18 3.6 NW | 313 9.3 SW | 223 65.3 59.5
9/2/26 - 0730 62.8 20.8 20 5.6 N | 3 9.9 N | 6 63.9 59.5
9/2/26 - 0720 62.8 20.3 19 5.3 N | 7 8.6 N | 352 63.9 59.5
9/2/26 - 0710 62.7 19.3 19 5.3 N | 1 10.9 WNW | 291 63.9 59.5
9/2/26 - 0700 62.7 18.2 18 4.2 NNW | 337 10.2 NW | 306 63.9 59.5
9/2/26 - 0650 63.0 17.4 17 3.7 NNW | 337 8.6 NW | 304 63.9 59.5
9/2/26 - 0640 62.9 16.2 16 3.9 NW | 326 10.4 WNW | 282 63.8 59.5
9/2/26 - 0630 62.8 16.0 16 5.4 NNW | 328 15.4 W | 271 63.7 59.5
9/2/26 - 0620 61.0 17.5 18 7.7 NNW | 346 12.2 NW | 325 62.9 59.5
9/2/26 - 0610 60.2 18.6 20 6.9 N | 360 10.2 N | 0 62.4 59.5
9/2/26 - 0600 61.7 18.0 18 5.6 NNW | 342 9.4 NW | 326 62.4 60.1
9/2/26 - 0550 62.1 18.8 18 6.2 NNW | 329 10.3 NW | 314 62.4 60.1
9/2/26 - 0540 61.6 20.3 20 5.6 NW | 323 9.6 NNW | 331 62.1 60.1
9/2/26 - 0530 61.0 25.2 25 5.6 NW | 324 9.9 NW | 317 62.1 60.1
9/2/26 - 0520 61.0 29.6 30 6.6 NW | 311 13.0 W | 278 62.1 60.1
9/2/26 - 0510 61.1 32.2 34 5.8 WNW | 298 12.1 WNW | 294 62.1 60.1
9/2/26 - 0500 61.2 32.6 34 7.9 WNW | 291 14.0 W | 280 62.1 60.1
9/2/26 - 0450 61.4 32.0 33 8.2 WNW | 284 12.9 WNW | 300 62.1 60.1
9/2/26 - 0440 61.6 32.2 33 9.7 W | 276 15.5 W | 280 62.1 60.1
9/2/26 - 0430 61.6 32.1 33 10.5 W | 273 16.5 W | 280 62.1 60.1
9/2/26 - 0420 61.7 32.7 33 10.5 W | 263 19.3 W | 276 62.1 60.1
9/2/26 - 0410 61.7 30.5 31 12.0 W | 264 19.8 W | 269 62.1 60.1
9/2/26 - 0400 61.8 28.8 28 11.4 W | 272 17.6 W | 281 62.1 60.1
9/2/26 - 0350 61.8 26.5 26 11.7 W | 275 17.6 W | 270 62.1 60.1
9/2/26 - 0340 61.9 23.6 23 10.7 W | 278 16.6 WNW | 284 62.1 60.1
9/2/26 - 0330 62.1 21.6 21 12.9 W | 278 18.4 WNW | 289 62.1 60.1
9/2/26 - 0320 62.0 20.4 20 12.9 W | 277 20.3 W | 281 62.1 60.1
9/2/26 - 0310 61.6 19.1 19 11.4 W | 277 16.6 W | 274 61.8 60.1
9/2/26 - 0300 61.3 19.8 20 11.0 W | 279 16.3 W | 274 61.5 60.1
9/2/26 - 0250 61.0 20.6 21 10.3 W | 281 16.3 W | 280 61.2 60.1
9/2/26 - 0240 60.9 21.0 21 10.4 WNW | 283 16.6 W | 281 61.2 60.1
9/2/26 - 0230 60.7 21.8 22 9.7 WNW | 282 15.9 WNW | 283 61.2 60.1
9/2/26 - 0220 60.6 22.6 23 9.4 WNW | 282 15.4 WNW | 299 61.2 60.1
9/2/26 - 0210 60.7 23.0 23 9.7 W | 277 15.3 W | 267 61.2 60.1
9/2/26 - 0200 60.8 22.6 23 9.2 W | 271 14.0 WSW | 250 61.2 60.1
9/2/26 - 0150 60.8 22.5 23 8.7 W | 273 13.9 WNW | 283 61.2 60.1
9/2/26 - 0140 61.0 22.9 23 10.1 W | 274 15.8 W | 279 61.2 60.1
9/2/26 - 0130 60.9 23.8 24 10.1 W | 274 16.4 W | 272 61.0 60.1
9/2/26 - 0120 60.6 24.9 25 9.7 W | 274 16.2 W | 280 60.8 60.1
9/2/26 - 0110 60.3 26.6 27 8.6 W | 280 13.4 W | 276 60.5 60.1
9/2/26 - 0100 59.8 30.0 32 9.2 W | 279 15.0 W | 279 76.1 57.9
9/2/26 - 0050 58.3 31.5 36 7.5 W | 270 14.6 W | 274 76.1 57.9
9/2/26 - 0040 58.7 31.4 35 6.3 W | 260 11.4 W | 264 76.1 58.2
9/2/26 - 0030 58.6 29.0 32 7.7 W | 263 12.2 W | 280 76.1 58.2
9/2/26 - 0020 58.3 28.0 31 7.1 WSW | 254 11.0 WSW | 249 76.1 58.2
9/2/26 - 0010 59.2 28.6 31 6.0 WSW | 242 7.9 WSW | 238 76.1 58.3
9/2/26 - 0000 61.3 26.8 27 6.5 WSW | 258 12.4 W | 278 76.1 60.4
9/1/26 - 2350 61.3 26.1 26 6.7 W | 265 14.0 WNW | 284 76.1 60.8
9/1/26 - 2340 61.4 26.3 26 5.5 WSW | 257 11.4 W | 265 76.1 60.8
9/1/26 - 2330 61.6 26.3 26 6.8 W | 273 12.6 W | 276 76.1 60.8
9/1/26 - 2320 61.5 28.3 28 5.4 WSW | 248 13.2 WSW | 245 76.1 60.8
9/1/26 - 2310 62.3 27.1 26 7.9 W | 261 15.5 W | 272 76.1 60.9
9/1/26 - 2300 62.5 27.5 26 8.5 W | 263 16.2 WNW | 282 76.1 60.9
9/1/26 - 2250 62.4 30.2 30 7.6 W | 262 14.3 W | 278 76.1 60.9
9/1/26 - 2240 63.7 31.2 29 8.5 W | 266 19.4 W | 277 76.1 60.9
9/1/26 - 2230 63.6 32.0 30 9.7 W | 278 17.0 WNW | 285 76.1 60.9
9/1/26 - 2220 62.9 33.0 33 6.9 W | 278 13.9 W | 275 76.1 60.9
9/1/26 - 2210 63.5 32.6 31 7.5 W | 270 18.0 W | 260 76.1 60.9
9/1/26 - 2200 62.0 32.5 33 9.0 W | 262 18.1 W | 260 76.1 60.9
9/1/26 - 2150 61.4 33.1 34 7.5 WSW | 254 15.3 WSW | 256 76.1 60.9
9/1/26 - 2140 62.2 33.1 33 8.5 WSW | 250 16.2 WSW | 240 76.1 61.1
9/1/26 - 2130 64.6 32.8 30 12.0 W | 273 17.9 WNW | 282 76.1 62.7
9/1/26 - 2120 64.6 32.2 30 10.2 W | 274 19.1 W | 274 76.1 62.7
9/1/26 - 2110 64.3 33.1 31 9.3 WNW | 283 16.3 WNW | 287 76.1 62.7
9/1/26 - 2100 63.6 35.0 34 8.6 W | 280 16.2 W | 281 76.1 62.7
9/1/26 - 2050 62.9 35.6 36 5.5 W | 276 11.0 WNW | 286 76.1 62.7
9/1/26 - 2040 62.9 34.8 35 6.0 W | 281 11.8 W | 278 76.1 62.7
9/1/26 - 2030 63.0 34.3 34 5.1 WNW | 295 9.4 WNW | 285 76.1 62.7
9/1/26 - 2020 63.3 31.8 31 7.9 WNW | 293 18.1 WNW | 289 76.1 62.8
9/1/26 - 2010 63.6 28.6 27 10.3 WNW | 294 17.7 W | 280 76.1 62.8
9/1/26 - 2000 63.8 31.5 30 10.1 WNW | 292 15.4 WNW | 296 76.1 62.8
9/1/26 - 1950 64.1 32.9 31 10.1 WNW | 288 18.1 WNW | 282 76.1 62.8
9/1/26 - 1940 64.3 33.8 32 11.5 W | 278 18.8 WNW | 282 76.1 62.8
9/1/26 - 1930 64.4 33.8 32 10.1 W | 276 14.8 WNW | 285 76.1 62.8
9/1/26 - 1920 64.9 34.0 32 11.4 W | 276 17.5 W | 268 76.1 62.8
9/1/26 - 1910 65.6 34.8 32 10.6 W | 270 16.2 WSW | 256 76.1 62.8
9/1/26 - 1900 66.2 35.3 32 11.3 WSW | 252 17.4 WSW | 257 76.1 62.8
9/1/26 - 1850 67.0 35.8 32 14.3 WSW | 246 21.8 WSW | 241 76.1 62.8
9/1/26 - 1840 67.9 35.3 30 15.1 WSW | 244 21.0 WSW | 242 76.1 62.8
9/1/26 - 1830 68.7 34.0 28 15.4 WSW | 245 21.7 WSW | 239 76.1 62.8
9/1/26 - 1820 69.0 34.5 28 14.5 WSW | 255 21.6 W | 265 76.1 62.8
9/1/26 - 1810 69.5 35.4 29 14.8 WSW | 254 24.9 W | 262 76.1 62.8
9/1/26 - 1800 70.1 35.4 28 13.4 WSW | 247 21.0 WSW | 258 76.1 62.8
9/1/26 - 1750 70.4 35.6 28 14.4 WSW | 247 21.5 WSW | 250 76.1 62.8
9/1/26 - 1740 71.2 34.5 26 15.6 WSW | 247 22.6 WSW | 244 76.1 62.8
9/1/26 - 1730 71.4 34.5 26 17.3 WSW | 243 23.2 WSW | 242 76.1 62.8
9/1/26 - 1720 72.1 34.9 26 14.9 WSW | 243 22.6 SW | 234 76.1 62.8
9/1/26 - 1710 72.1 37.1 28 16.8 WSW | 242 24.8 WSW | 245 76.1 62.8
9/1/26 - 1700 72.2 38.3 29 15.5 WSW | 241 24.5 SW | 234 76.1 62.8
9/1/26 - 1650 72.4 38.4 29 16.2 WSW | 248 23.1 W | 262 76.1 62.8
9/1/26 - 1640 73.1 37.8 28 18.0 WSW | 242 25.9 WSW | 242 76.1 62.8
9/1/26 - 1630 73.4 37.3 27 14.9 WSW | 243 24.5 WSW | 251 76.1 62.8
9/1/26 - 1620 73.3 37.2 27 15.2 WSW | 247 23.9 WSW | 256 76.1 62.8
9/1/26 - 1610 73.0 37.8 28 14.9 WSW | 242 22.4 WSW | 246 76.1 62.8
9/1/26 - 1600 73.4 37.3 27 16.9 WSW | 240 24.1 WSW | 247 76.1 62.8
9/1/26 - 1550 74.6 37.2 26 14.6 SW | 236 23.5 WSW | 242 76.1 62.8
9/1/26 - 1540 73.2 36.8 27 15.2 WSW | 240 24.6 WSW | 244 76.1 62.8
9/1/26 - 1530 74.1 36.4 25 15.0 SW | 236 24.1 WSW | 239 76.1 62.8
9/1/26 - 1520 74.9 36.1 24 15.6 WSW | 239 24.7 W | 259 76.1 62.8
9/1/26 - 1510 74.3 35.9 25 14.9 WSW | 243 22.8 WSW | 251 76.1 62.8
9/1/26 - 1500 75.0 36.6 25 13.9 WSW | 238 20.8 WSW | 250 76.1 62.8
9/1/26 - 1450 74.4 36.7 25 13.8 WSW | 240 24.1 WSW | 256 76.1 62.8
9/1/26 - 1440 74.0 37.1 26 14.2 WSW | 245 22.4 WSW | 238 76.1 62.8
9/1/26 - 1430 74.1 36.5 25 15.7 WSW | 242 25.4 WSW | 250 76.1 62.8
9/1/26 - 1420 73.6 36.7 26 16.8 SW | 236 24.3 SW | 219 76.1 62.8
9/1/26 - 1410 74.4 38.3 27 14.4 WSW | 242 24.1 WSW | 249 76.1 62.8
9/1/26 - 1400 73.9 38.4 28 14.8 WSW | 244 23.4 WSW | 247 75.2 62.8
9/1/26 - 1350 73.9 37.3 26 15.8 WSW | 238 24.5 WSW | 237 75.2 62.8
9/1/26 - 1340 73.6 37.9 27 15.7 WSW | 250 26.8 SW | 236 75.2 62.8
Max 75.0 38.4 36 18.0 - 27.0 - 76.8 62.8
Avg 66.2 27.5 24 10.7 - 17.7 - - -
Min 58.3 16.0 13 3.6 - 7.9 - 60.5 57.9